sensor_id;sensor_type;location;lat;lon;timestamp;temperature;humidity
6879;DHT22;3478;51.462;7.338;2023-07-31T00:04:55;16.10;99.90
6879;DHT22;3478;51.462;7.338;2023-07-31T00:09:57;16.10;99.90
6879;DHT22;3478;51.462;7.338;2023-07-31T00:14:59;16.10;99.90
6879;DHT22;3478;51.462;7.338;2023-07-31T00:20:03;16.10;99.90
6879;DHT22;3478;51.462;7.338;2023-07-31T00:25:05;16.10;99.90
6879;DHT22;3478;51.462;7.338;2023-07-31T00:30:07;16.10;99.90
6879;DHT22;3478;51.462;7.338;2023-07-31T00:35:10;16.10;99.90
6879;DHT22;3478;51.462;7.338;2023-07-31T00:40:12;16.10;99.90
6879;DHT22;3478;51.462;7.338;2023-07-31T00:45:15;16.10;99.90
6879;DHT22;3478;51.462;7.338;2023-07-31T00:50:18;16.10;99.90
6879;DHT22;3478;51.462;7.338;2023-07-31T00:55:20;16.10;99.90
6879;DHT22;3478;51.462;7.338;2023-07-31T01:00:23;16.10;99.90
6879;DHT22;3478;51.462;7.338;2023-07-31T01:05:33;16.10;99.90
6879;DHT22;3478;51.462;7.338;2023-07-31T01:10:44;16.10;99.90
6879;DHT22;3478;51.462;7.338;2023-07-31T01:15:48;16.10;99.90
6879;DHT22;3478;51.462;7.338;2023-07-31T01:20:57;16.10;99.90
6879;DHT22;3478;51.462;7.338;2023-07-31T01:26:04;16.10;99.90
6879;DHT22;3478;51.462;7.338;2023-07-31T01:31:08;16.10;99.90
6879;DHT22;3478;51.462;7.338;2023-07-31T01:36:12;16.10;99.90
6879;DHT22;3478;51.462;7.338;2023-07-31T01:41:16;16.10;99.90
6879;DHT22;3478;51.462;7.338;2023-07-31T01:46:18;16.10;99.90
6879;DHT22;3478;51.462;7.338;2023-07-31T01:51:20;16.20;99.90
6879;DHT22;3478;51.462;7.338;2023-07-31T01:56:23;16.10;99.90
6879;DHT22;3478;51.462;7.338;2023-07-31T02:01:25;16.10;99.90
6879;DHT22;3478;51.462;7.338;2023-07-31T02:06:27;16.10;99.90
6879;DHT22;3478;51.462;7.338;2023-07-31T02:11:30;16.10;99.90
6879;DHT22;3478;51.462;7.338;2023-07-31T02:16:32;16.10;99.90
6879;DHT22;3478;51.462;7.338;2023-07-31T02:21:34;16.10;99.90
6879;DHT22;3478;51.462;7.338;2023-07-31T02:26:37;16.10;99.90
6879;DHT22;3478;51.462;7.338;2023-07-31T02:31:39;16.10;99.90
6879;DHT22;3478;51.462;7.338;2023-07-31T02:36:40;16.10;99.90
6879;DHT22;3478;51.462;7.338;2023-07-31T02:41:44;16.10;99.90
6879;DHT22;3478;51.462;7.338;2023-07-31T02:46:45;16.10;99.90
6879;DHT22;3478;51.462;7.338;2023-07-31T02:51:47;16.10;99.90
6879;DHT22;3478;51.462;7.338;2023-07-31T02:56:50;16.10;99.90
6879;DHT22;3478;51.462;7.338;2023-07-31T03:01:52;16.10;99.90
6879;DHT22;3478;51.462;7.338;2023-07-31T03:06:54;16.10;99.90
6879;DHT22;3478;51.462;7.338;2023-07-31T03:11:57;16.10;99.90
6879;DHT22;3478;51.462;7.338;2023-07-31T03:16:59;16.10;99.90
6879;DHT22;3478;51.462;7.338;2023-07-31T03:22:01;16.10;99.90
6879;DHT22;3478;51.462;7.338;2023-07-31T03:27:05;16.10;99.90
6879;DHT22;3478;51.462;7.338;2023-07-31T03:32:07;16.10;99.90
6879;DHT22;3478;51.462;7.338;2023-07-31T03:37:09;16.20;99.90
6879;DHT22;3478;51.462;7.338;2023-07-31T03:42:12;16.20;99.90
6879;DHT22;3478;51.462;7.338;2023-07-31T03:47:14;16.20;99.90
6879;DHT22;3478;51.462;7.338;2023-07-31T03:52:16;16.20;99.90
6879;DHT22;3478;51.462;7.338;2023-07-31T03:57:19;16.30;99.90
6879;DHT22;3478;51.462;7.338;2023-07-31T04:02:21;16.30;99.90
6879;DHT22;3478;51.462;7.338;2023-07-31T04:07:23;16.30;99.90
6879;DHT22;3478;51.462;7.338;2023-07-31T04:12:26;16.30;99.90
6879;DHT22;3478;51.462;7.338;2023-07-31T04:17:28;16.40;99.90
6879;DHT22;3478;51.462;7.338;2023-07-31T04:22:30;16.40;99.90
6879;DHT22;3478;51.462;7.338;2023-07-31T04:27:33;16.50;99.90
6879;DHT22;3478;51.462;7.338;2023-07-31T04:32:35;16.50;99.90
6879;DHT22;3478;51.462;7.338;2023-07-31T04:37:37;16.60;99.90
6879;DHT22;3478;51.462;7.338;2023-07-31T04:42:40;16.60;99.90
6879;DHT22;3478;51.462;7.338;2023-07-31T04:47:42;16.60;99.90
6879;DHT22;3478;51.462;7.338;2023-07-31T04:52:44;16.60;99.90
6879;DHT22;3478;51.462;7.338;2023-07-31T04:57:47;16.60;99.90
6879;DHT22;3478;51.462;7.338;2023-07-31T05:02:49;16.70;99.90
6879;DHT22;3478;51.462;7.338;2023-07-31T05:07:51;16.70;99.90
6879;DHT22;3478;51.462;7.338;2023-07-31T05:12:54;16.60;99.90
6879;DHT22;3478;51.462;7.338;2023-07-31T05:17:56;16.70;99.90
6879;DHT22;3478;51.462;7.338;2023-07-31T05:22:58;16.70;99.90
6879;DHT22;3478;51.462;7.338;2023-07-31T05:28:01;16.70;99.90
6879;DHT22;3478;51.462;7.338;2023-07-31T05:33:03;16.80;99.90
6879;DHT22;3478;51.462;7.338;2023-07-31T05:38:05;16.80;99.90
6879;DHT22;3478;51.462;7.338;2023-07-31T05:43:08;16.90;99.90
6879;DHT22;3478;51.462;7.338;2023-07-31T05:48:10;16.90;99.90
6879;DHT22;3478;51.462;7.338;2023-07-31T05:53:12;16.90;99.90
6879;DHT22;3478;51.462;7.338;2023-07-31T05:58:15;16.90;99.90
6879;DHT22;3478;51.462;7.338;2023-07-31T06:03:17;16.80;99.90
6879;DHT22;3478;51.462;7.338;2023-07-31T06:08:18;16.80;99.90
6879;DHT22;3478;51.462;7.338;2023-07-31T06:13:22;16.70;99.90
6879;DHT22;3478;51.462;7.338;2023-07-31T06:18:23;16.70;99.90
6879;DHT22;3478;51.462;7.338;2023-07-31T06:23:25;16.70;99.90
6879;DHT22;3478;51.462;7.338;2023-07-31T06:28:29;16.70;99.90
6879;DHT22;3478;51.462;7.338;2023-07-31T06:33:30;16.80;99.90
6879;DHT22;3478;51.462;7.338;2023-07-31T06:38:32;16.80;99.90
6879;DHT22;3478;51.462;7.338;2023-07-31T06:43:35;16.90;99.90
6879;DHT22;3478;51.462;7.338;2023-07-31T06:48:37;17.00;99.90
6879;DHT22;3478;51.462;7.338;2023-07-31T06:53:40;17.00;99.90
6879;DHT22;3478;51.462;7.338;2023-07-31T06:58:43;17.00;99.90
6879;DHT22;3478;51.462;7.338;2023-07-31T07:03:45;17.00;99.90
6879;DHT22;3478;51.462;7.338;2023-07-31T07:08:47;16.90;99.90
6879;DHT22;3478;51.462;7.338;2023-07-31T07:13:50;16.90;99.90
6879;DHT22;3478;51.462;7.338;2023-07-31T07:18:52;16.90;99.90
6879;DHT22;3478;51.462;7.338;2023-07-31T07:23:53;16.90;99.90
6879;DHT22;3478;51.462;7.338;2023-07-31T07:28:57;16.90;99.90
6879;DHT22;3478;51.462;7.338;2023-07-31T07:33:58;16.90;99.90
6879;DHT22;3478;51.462;7.338;2023-07-31T07:39:01;16.80;99.90
6879;DHT22;3478;51.462;7.338;2023-07-31T07:44:04;16.80;99.90
6879;DHT22;3478;51.462;7.338;2023-07-31T07:49:06;16.80;99.90
6879;DHT22;3478;51.462;7.338;2023-07-31T07:54:08;16.70;99.90
6879;DHT22;3478;51.462;7.338;2023-07-31T07:59:11;16.70;99.90
6879;DHT22;3478;51.462;7.338;2023-07-31T08:04:13;16.80;99.90
6879;DHT22;3478;51.462;7.338;2023-07-31T08:09:15;16.70;99.90
6879;DHT22;3478;51.462;7.338;2023-07-31T08:14:18;16.80;99.90
6879;DHT22;3478;51.462;7.338;2023-07-31T08:19:20;16.90;99.90
6879;DHT22;3478;51.462;7.338;2023-07-31T08:24:22;16.90;99.90
6879;DHT22;3478;51.462;7.338;2023-07-31T08:29:26;16.80;99.90
6879;DHT22;3478;51.462;7.338;2023-07-31T08:34:28;16.80;99.90
6879;DHT22;3478;51.462;7.338;2023-07-31T08:39:30;16.80;99.90
6879;DHT22;3478;51.462;7.338;2023-07-31T08:44:33;16.80;99.90
6879;DHT22;3478;51.462;7.338;2023-07-31T08:49:37;16.80;99.90
6879;DHT22;3478;51.462;7.338;2023-07-31T08:54:40;16.80;99.90
6879;DHT22;3478;51.462;7.338;2023-07-31T08:59:44;16.70;99.90
6879;DHT22;3478;51.462;7.338;2023-07-31T09:04:46;16.70;99.90
6879;DHT22;3478;51.462;7.338;2023-07-31T09:09:48;16.70;99.90
6879;DHT22;3478;51.462;7.338;2023-07-31T09:14:51;16.70;99.90
6879;DHT22;3478;51.462;7.338;2023-07-31T09:19:53;16.90;99.90
6879;DHT22;3478;51.462;7.338;2023-07-31T09:24:55;16.90;99.90
6879;DHT22;3478;51.462;7.338;2023-07-31T09:30:00;16.80;99.90
6879;DHT22;3478;51.462;7.338;2023-07-31T09:35:19;16.60;99.90
6879;DHT22;3478;51.462;7.338;2023-07-31T09:40:28;16.70;99.90
6879;DHT22;3478;51.462;7.338;2023-07-31T09:45:34;16.80;99.90
6879;DHT22;3478;51.462;7.338;2023-07-31T09:50:37;16.80;99.90
6879;DHT22;3478;51.462;7.338;2023-07-31T09:55:40;16.90;99.90
6879;DHT22;3478;51.462;7.338;2023-07-31T10:00:44;17.10;99.90
6879;DHT22;3478;51.462;7.338;2023-07-31T10:05:52;17.20;99.90
6879;DHT22;3478;51.462;7.338;2023-07-31T10:10:55;17.20;99.90
6879;DHT22;3478;51.462;7.338;2023-07-31T10:16:01;17.10;99.90
6879;DHT22;3478;51.462;7.338;2023-07-31T10:21:04;17.30;99.90
6879;DHT22;3478;51.462;7.338;2023-07-31T10:26:07;17.30;99.90
6879;DHT22;3478;51.462;7.338;2023-07-31T10:31:11;17.20;99.90
6879;DHT22;3478;51.462;7.338;2023-07-31T10:36:14;17.10;99.90
6879;DHT22;3478;51.462;7.338;2023-07-31T10:41:18;17.10;99.90
6879;DHT22;3478;51.462;7.338;2023-07-31T10:46:22;17.20;99.90
6879;DHT22;3478;51.462;7.338;2023-07-31T10:51:32;17.10;99.90
6879;DHT22;3478;51.462;7.338;2023-07-31T10:56:37;17.00;99.90
6879;DHT22;3478;51.462;7.338;2023-07-31T11:01:53;17.00;99.90
6879;DHT22;3478;51.462;7.338;2023-07-31T11:06:58;17.10;99.90
6879;DHT22;3478;51.462;7.338;2023-07-31T11:12:01;17.10;99.90
6879;DHT22;3478;51.462;7.338;2023-07-31T11:17:07;17.00;99.90
6879;DHT22;3478;51.462;7.338;2023-07-31T11:22:09;17.00;99.90
6879;DHT22;3478;51.462;7.338;2023-07-31T11:27:12;17.10;99.90
6879;DHT22;3478;51.462;7.338;2023-07-31T11:32:17;17.00;99.90
6879;DHT22;3478;51.462;7.338;2023-07-31T11:37:19;17.10;99.90
6879;DHT22;3478;51.462;7.338;2023-07-31T11:42:21;17.40;99.90
6879;DHT22;3478;51.462;7.338;2023-07-31T11:47:25;17.40;99.90
6879;DHT22;3478;51.462;7.338;2023-07-31T11:52:28;17.50;99.90
6879;DHT22;3478;51.462;7.338;2023-07-31T11:57:30;17.50;99.90
6879;DHT22;3478;51.462;7.338;2023-07-31T12:02:34;17.60;99.90
6879;DHT22;3478;51.462;7.338;2023-07-31T12:07:47;17.70;99.90
6879;DHT22;3478;51.462;7.338;2023-07-31T12:12:59;17.70;99.90
6879;DHT22;3478;51.462;7.338;2023-07-31T12:18:06;17.80;99.90
6879;DHT22;3478;51.462;7.338;2023-07-31T12:23:13;18.00;99.90
6879;DHT22;3478;51.462;7.338;2023-07-31T12:28:15;18.00;99.90
6879;DHT22;3478;51.462;7.338;2023-07-31T12:33:19;17.90;99.90
6879;DHT22;3478;51.462;7.338;2023-07-31T12:38:21;18.00;99.90
6879;DHT22;3478;51.462;7.338;2023-07-31T12:43:23;17.90;99.90
6879;DHT22;3478;51.462;7.338;2023-07-31T12:48:26;17.90;99.90
6879;DHT22;3478;51.462;7.338;2023-07-31T12:53:28;17.90;99.90
6879;DHT22;3478;51.462;7.338;2023-07-31T12:58:30;17.70;99.90
6879;DHT22;3478;51.462;7.338;2023-07-31T13:03:33;17.70;99.90
6879;DHT22;3478;51.462;7.338;2023-07-31T13:08:34;17.70;99.90
6879;DHT22;3478;51.462;7.338;2023-07-31T13:13:36;17.70;99.90
6879;DHT22;3478;51.462;7.338;2023-07-31T13:18:40;17.90;99.90
6879;DHT22;3478;51.462;7.338;2023-07-31T13:23:42;18.00;99.90
6879;DHT22;3478;51.462;7.338;2023-07-31T13:28:44;18.00;99.90
6879;DHT22;3478;51.462;7.338;2023-07-31T13:33:47;17.90;99.90
6879;DHT22;3478;51.462;7.338;2023-07-31T13:38:48;17.90;99.90
6879;DHT22;3478;51.462;7.338;2023-07-31T13:43:50;17.80;99.90
6879;DHT22;3478;51.462;7.338;2023-07-31T13:48:53;17.60;99.90
6879;DHT22;3478;51.462;7.338;2023-07-31T13:53:56;17.80;99.90
6879;DHT22;3478;51.462;7.338;2023-07-31T13:58:58;17.90;99.90
6879;DHT22;3478;51.462;7.338;2023-07-31T14:04:03;17.90;99.90
6879;DHT22;3478;51.462;7.338;2023-07-31T14:09:05;18.00;99.90
6879;DHT22;3478;51.462;7.338;2023-07-31T14:14:06;18.00;99.90
6879;DHT22;3478;51.462;7.338;2023-07-31T14:19:11;18.10;99.90
6879;DHT22;3478;51.462;7.338;2023-07-31T14:24:13;18.20;99.90
6879;DHT22;3478;51.462;7.338;2023-07-31T14:29:15;18.60;99.90
6879;DHT22;3478;51.462;7.338;2023-07-31T14:34:18;18.90;99.90
6879;DHT22;3478;51.462;7.338;2023-07-31T14:39:20;19.40;99.90
6879;DHT22;3478;51.462;7.338;2023-07-31T14:44:22;19.70;99.90
6879;DHT22;3478;51.462;7.338;2023-07-31T14:49:25;19.70;99.90
6879;DHT22;3478;51.462;7.338;2023-07-31T14:54:27;19.40;99.90
6879;DHT22;3478;51.462;7.338;2023-07-31T14:59:29;19.10;99.90
6879;DHT22;3478;51.462;7.338;2023-07-31T15:04:33;19.00;99.90
6879;DHT22;3478;51.462;7.338;2023-07-31T15:09:34;18.80;99.90
6879;DHT22;3478;51.462;7.338;2023-07-31T15:14:36;18.70;99.90
6879;DHT22;3478;51.462;7.338;2023-07-31T15:19:39;18.60;99.90
6879;DHT22;3478;51.462;7.338;2023-07-31T15:24:41;18.60;99.90
6879;DHT22;3478;51.462;7.338;2023-07-31T15:29:43;18.70;99.90
6879;DHT22;3478;51.462;7.338;2023-07-31T15:34:46;18.70;99.90
6879;DHT22;3478;51.462;7.338;2023-07-31T15:39:48;18.80;99.90
6879;DHT22;3478;51.462;7.338;2023-07-31T15:44:50;18.80;99.90
6879;DHT22;3478;51.462;7.338;2023-07-31T15:49:53;18.80;99.90
6879;DHT22;3478;51.462;7.338;2023-07-31T15:54:55;18.70;99.90
6879;DHT22;3478;51.462;7.338;2023-07-31T15:59:57;18.70;99.90
6879;DHT22;3478;51.462;7.338;2023-07-31T16:05:00;18.70;99.90
6879;DHT22;3478;51.462;7.338;2023-07-31T16:10:03;18.80;99.90
6879;DHT22;3478;51.462;7.338;2023-07-31T16:15:05;18.80;99.90
6879;DHT22;3478;51.462;7.338;2023-07-31T16:20:09;18.90;99.90
6879;DHT22;3478;51.462;7.338;2023-07-31T16:25:11;18.90;99.90
6879;DHT22;3478;51.462;7.338;2023-07-31T16:30:13;18.80;99.90
6879;DHT22;3478;51.462;7.338;2023-07-31T16:35:17;18.80;99.90
6879;DHT22;3478;51.462;7.338;2023-07-31T16:40:18;18.60;99.90
6879;DHT22;3478;51.462;7.338;2023-07-31T16:45:20;18.40;99.90
6879;DHT22;3478;51.462;7.338;2023-07-31T16:50:24;18.30;99.90
6879;DHT22;3478;51.462;7.338;2023-07-31T16:55:26;18.10;99.90
6879;DHT22;3478;51.462;7.338;2023-07-31T17:00:29;17.90;99.90
6879;DHT22;3478;51.462;7.338;2023-07-31T17:05:32;17.90;99.90
6879;DHT22;3478;51.462;7.338;2023-07-31T17:10:34;17.80;99.90
6879;DHT22;3478;51.462;7.338;2023-07-31T17:15:36;17.80;99.90
6879;DHT22;3478;51.462;7.338;2023-07-31T17:20:39;17.80;99.90
6879;DHT22;3478;51.462;7.338;2023-07-31T17:25:41;17.80;99.90
6879;DHT22;3478;51.462;7.338;2023-07-31T17:30:43;17.80;99.90
6879;DHT22;3478;51.462;7.338;2023-07-31T17:35:46;17.80;99.90
6879;DHT22;3478;51.462;7.338;2023-07-31T17:40:50;17.70;99.90
6879;DHT22;3478;51.462;7.338;2023-07-31T17:45:52;17.60;99.90
6879;DHT22;3478;51.462;7.338;2023-07-31T17:50:55;17.50;99.90
6879;DHT22;3478;51.462;7.338;2023-07-31T17:55:57;17.50;99.90
6879;DHT22;3478;51.462;7.338;2023-07-31T18:00:59;17.40;99.90
6879;DHT22;3478;51.462;7.338;2023-07-31T18:06:02;17.30;99.90
6879;DHT22;3478;51.462;7.338;2023-07-31T18:11:04;17.30;99.90
6879;DHT22;3478;51.462;7.338;2023-07-31T18:16:06;17.30;99.90
6879;DHT22;3478;51.462;7.338;2023-07-31T18:21:09;17.30;99.90
6879;DHT22;3478;51.462;7.338;2023-07-31T18:26:11;17.20;99.90
6879;DHT22;3478;51.462;7.338;2023-07-31T18:31:13;17.10;99.90
6879;DHT22;3478;51.462;7.338;2023-07-31T18:36:17;17.00;99.90
6879;DHT22;3478;51.462;7.338;2023-07-31T18:41:19;17.00;99.90
6879;DHT22;3478;51.462;7.338;2023-07-31T18:46:21;17.00;99.90
6879;DHT22;3478;51.462;7.338;2023-07-31T18:51:24;17.00;99.90
6879;DHT22;3478;51.462;7.338;2023-07-31T18:56:26;16.90;99.90
6879;DHT22;3478;51.462;7.338;2023-07-31T19:01:28;16.90;99.90
6879;DHT22;3478;51.462;7.338;2023-07-31T19:06:31;16.90;99.90
6879;DHT22;3478;51.462;7.338;2023-07-31T19:11:35;16.90;99.90
6879;DHT22;3478;51.462;7.338;2023-07-31T19:16:37;16.90;99.90
6879;DHT22;3478;51.462;7.338;2023-07-31T19:21:40;16.90;99.90
6879;DHT22;3478;51.462;7.338;2023-07-31T19:26:42;16.90;99.90
6879;DHT22;3478;51.462;7.338;2023-07-31T19:31:44;16.90;99.90
6879;DHT22;3478;51.462;7.338;2023-07-31T19:36:48;16.90;99.90
6879;DHT22;3478;51.462;7.338;2023-07-31T19:41:49;16.90;99.90
6879;DHT22;3478;51.462;7.338;2023-07-31T19:46:51;16.90;99.90
6879;DHT22;3478;51.462;7.338;2023-07-31T19:51:55;16.90;99.90
6879;DHT22;3478;51.462;7.338;2023-07-31T19:56:56;16.90;99.90
6879;DHT22;3478;51.462;7.338;2023-07-31T20:01:58;16.90;99.90
6879;DHT22;3478;51.462;7.338;2023-07-31T20:07:02;16.90;99.90
6879;DHT22;3478;51.462;7.338;2023-07-31T20:12:05;16.90;99.90
6879;DHT22;3478;51.462;7.338;2023-07-31T20:17:07;17.00;99.90
6879;DHT22;3478;51.462;7.338;2023-07-31T20:22:10;17.00;99.90
6879;DHT22;3478;51.462;7.338;2023-07-31T20:27:14;17.00;99.90
6879;DHT22;3478;51.462;7.338;2023-07-31T20:32:18;17.00;99.90
6879;DHT22;3478;51.462;7.338;2023-07-31T20:37:21;17.00;99.90
6879;DHT22;3478;51.462;7.338;2023-07-31T20:42:25;17.00;99.90
6879;DHT22;3478;51.462;7.338;2023-07-31T20:47:27;17.10;99.90
6879;DHT22;3478;51.462;7.338;2023-07-31T20:52:31;17.10;99.90
6879;DHT22;3478;51.462;7.338;2023-07-31T20:57:33;17.10;99.90
6879;DHT22;3478;51.462;7.338;2023-07-31T21:02:34;17.10;99.90
6879;DHT22;3478;51.462;7.338;2023-07-31T21:07:38;17.00;99.90
6879;DHT22;3478;51.462;7.338;2023-07-31T21:12:43;17.10;99.90
6879;DHT22;3478;51.462;7.338;2023-07-31T21:17:45;17.00;99.90
6879;DHT22;3478;51.462;7.338;2023-07-31T21:22:48;17.00;99.90
6879;DHT22;3478;51.462;7.338;2023-07-31T21:27:50;17.00;99.90
6879;DHT22;3478;51.462;7.338;2023-07-31T21:32:52;17.00;99.90
6879;DHT22;3478;51.462;7.338;2023-07-31T21:37:55;17.00;99.90
6879;DHT22;3478;51.462;7.338;2023-07-31T21:42:57;17.00;99.90
6879;DHT22;3478;51.462;7.338;2023-07-31T21:47:59;17.00;99.90
6879;DHT22;3478;51.462;7.338;2023-07-31T21:53:02;17.10;99.90
6879;DHT22;3478;51.462;7.338;2023-07-31T21:58:04;17.10;99.90
6879;DHT22;3478;51.462;7.338;2023-07-31T22:03:05;17.10;99.90
6879;DHT22;3478;51.462;7.338;2023-07-31T22:08:09;17.00;99.90
6879;DHT22;3478;51.462;7.338;2023-07-31T22:13:10;17.00;99.90
6879;DHT22;3478;51.462;7.338;2023-07-31T22:18:12;17.00;99.90
6879;DHT22;3478;51.462;7.338;2023-07-31T22:23:16;17.00;99.90
6879;DHT22;3478;51.462;7.338;2023-07-31T22:28:18;17.00;99.90
6879;DHT22;3478;51.462;7.338;2023-07-31T22:33:19;17.00;99.90
6879;DHT22;3478;51.462;7.338;2023-07-31T22:38:22;17.00;99.90
6879;DHT22;3478;51.462;7.338;2023-07-31T22:43:24;17.00;99.90
6879;DHT22;3478;51.462;7.338;2023-07-31T22:48:26;17.00;99.90
6879;DHT22;3478;51.462;7.338;2023-07-31T22:53:30;16.90;99.90
6879;DHT22;3478;51.462;7.338;2023-07-31T22:58:33;16.90;99.90
6879;DHT22;3478;51.462;7.338;2023-07-31T23:03:35;16.90;99.90
6879;DHT22;3478;51.462;7.338;2023-07-31T23:08:38;16.80;99.90
6879;DHT22;3478;51.462;7.338;2023-07-31T23:13:40;16.80;99.90
6879;DHT22;3478;51.462;7.338;2023-07-31T23:18:42;16.80;99.90
6879;DHT22;3478;51.462;7.338;2023-07-31T23:23:45;16.90;99.90
6879;DHT22;3478;51.462;7.338;2023-07-31T23:28:47;16.90;99.90
6879;DHT22;3478;51.462;7.338;2023-07-31T23:33:49;16.90;99.90
6879;DHT22;3478;51.462;7.338;2023-07-31T23:38:52;16.90;99.90
6879;DHT22;3478;51.462;7.338;2023-07-31T23:43:54;16.90;99.90
6879;DHT22;3478;51.462;7.338;2023-07-31T23:48:56;16.90;99.90
6879;DHT22;3478;51.462;7.338;2023-07-31T23:53:59;16.90;99.90
6879;DHT22;3478;51.462;7.338;2023-07-31T23:59:01;16.90;99.90
